createdAt,value
2022-09-03T00:02:15.765Z,94636.69
2022-09-03T00:04:51.288Z,94637.81
2022-09-03T00:07:22.185Z,94632.06
2022-09-03T00:09:52.891Z,94646.59
2022-09-03T00:12:24.900Z,94634.53
2022-09-03T00:14:57.344Z,94627.38
2022-09-03T00:17:26.970Z,94620.28
2022-09-03T00:19:56.941Z,94630.66
2022-09-03T00:22:27.211Z,94629.03
2022-09-03T00:24:55.329Z,94640.50
2022-09-03T00:27:25.360Z,94630.41
2022-09-03T00:29:56.515Z,94634.19
2022-09-03T00:32:30.003Z,94631.22
2022-09-03T00:34:59.731Z,94629.84
2022-09-03T00:37:30.046Z,94633.97
2022-09-03T00:40:03.837Z,94637.25
2022-09-03T00:42:39.936Z,94638.91
2022-09-03T00:45:19.250Z,94642.25
2022-09-03T00:47:58.418Z,94644.69
2022-09-03T00:50:32.736Z,94639.50
2022-09-03T00:53:05.834Z,94641.97
2022-09-03T00:55:40.390Z,94637.88
2022-09-03T00:58:31.213Z,94639.50
2022-09-03T01:01:00.413Z,94640.09
2022-09-03T01:03:34.692Z,94640.09
2022-09-03T01:06:15.376Z,94639.78
2022-09-03T01:09:12.129Z,94652.16
2022-09-03T01:11:47.209Z,94640.13
2022-09-03T01:14:20.957Z,94638.50
2022-09-03T01:16:55.149Z,94630.28
2022-09-03T01:19:52.107Z,94625.38
2022-09-03T01:22:35.639Z,94617.16
2022-09-03T01:25:14.079Z,94624.00
2022-09-03T01:27:50.530Z,94621.53
2022-09-03T01:30:24.047Z,94623.75
2022-09-03T01:32:57.410Z,94627.56
2022-09-03T01:35:30.545Z,94625.09
2022-09-03T01:38:11.134Z,94629.22
2022-09-03T01:40:44.607Z,94633.06
2022-09-03T01:43:36.855Z,94632.50
2022-09-03T01:46:13.641Z,94637.41
2022-09-03T01:48:46.323Z,94632.50
2022-09-03T01:51:22.649Z,94635.78
2022-09-03T01:54:04.942Z,94637.94
2022-09-03T01:56:41.869Z,94628.63
2022-09-03T01:59:15.610Z,94628.41
2022-09-03T02:01:47.275Z,94623.97
2022-09-03T02:04:20.575Z,94618.78
2022-09-03T02:06:48.991Z,94617.97
2022-09-03T02:09:17.062Z,94614.69
2022-09-03T02:11:53.788Z,94617.69
2022-09-03T02:14:21.673Z,94622.59
2022-09-03T02:16:50.735Z,94627.78
2022-09-03T02:19:19.015Z,94629.69
2022-09-03T02:21:51.211Z,94615.47
2022-09-03T02:24:18.722Z,94613.56
2022-09-03T02:26:46.669Z,94623.66
2022-09-03T02:29:14.677Z,94615.72
2022-09-03T02:31:42.387Z,94614.63
2022-09-03T02:34:11.539Z,94613.78
2022-09-03T02:36:41.371Z,94609.13
2022-09-03T02:39:09.252Z,94605.56
2022-09-03T02:41:36.898Z,94609.06
2022-09-03T02:44:07.786Z,94609.34
2022-09-03T02:46:37.814Z,94612.84
2022-09-03T02:49:05.466Z,94613.94
2022-09-03T02:51:36.320Z,94613.09
2022-09-03T02:54:05.256Z,94616.38
2022-09-03T02:56:33.073Z,94622.66
2022-09-03T02:59:01.304Z,94622.94
2022-09-03T03:01:29.043Z,94625.38
2022-09-03T03:04:00.411Z,94619.63
2022-09-03T03:06:28.116Z,94624.00
2022-09-03T03:08:57.741Z,94622.09
2022-09-03T03:11:26.342Z,94616.38
2022-09-03T03:13:54.433Z,94613.91
2022-09-03T03:16:22.123Z,94616.09
2022-09-03T03:18:50.845Z,94616.09
2022-09-03T03:21:19.691Z,94624.81
2022-09-03T03:23:47.350Z,94626.69
2022-09-03T03:26:18.597Z,94627.75
2022-09-03T03:28:46.881Z,94635.13
2022-09-03T03:31:16.418Z,94631.28
2022-09-03T03:33:44.155Z,94631.28
2022-09-03T03:36:13.769Z,94628.31
2022-09-03T03:38:42.418Z,94637.00
2022-09-03T03:41:11.247Z,94633.75
2022-09-03T03:43:40.650Z,94616.00
2022-09-03T03:46:08.754Z,94620.09
2022-09-03T03:48:36.401Z,94617.63
2022-09-03T03:51:06.809Z,94620.63
2022-09-03T03:53:34.487Z,94627.50
2022-09-03T03:56:04.662Z,94631.84
2022-09-03T03:58:33.509Z,94623.09
2022-09-03T04:01:07.479Z,94637.84
2022-09-03T04:03:35.175Z,94639.97
2022-09-03T04:06:04.657Z,94645.19
2022-09-03T04:08:35.550Z,94637.56
2022-09-03T04:11:04.603Z,94642.22
2022-09-03T04:13:32.978Z,94649.88
2022-09-03T04:16:04.408Z,94655.38
2022-09-03T04:18:33.977Z,94644.72
2022-09-03T04:21:04.215Z,94653.22
2022-09-03T04:23:32.800Z,94645.03
2022-09-03T04:26:00.498Z,94649.69
2022-09-03T04:28:28.442Z,94648.63
2022-09-03T04:30:56.334Z,94657.38
2022-09-03T04:33:26.221Z,94652.50
2022-09-03T04:36:03.654Z,94669.69
2022-09-03T04:38:31.789Z,94670.50
2022-09-03T04:41:00.465Z,94676.78
2022-09-03T04:43:28.386Z,94684.69
2022-09-03T04:46:00.144Z,94701.41
2022-09-03T04:48:28.300Z,94693.22
2022-09-03T04:51:05.901Z,94696.78
2022-09-03T04:53:35.107Z,94703.09
2022-09-03T04:56:03.137Z,94711.84
2022-09-03T04:58:31.380Z,94712.38
2022-09-03T05:00:59.441Z,94707.44
2022-09-03T05:03:27.385Z,94703.34
2022-09-03T05:05:57.134Z,94705.81
2022-09-03T05:08:25.537Z,94699.03
2022-09-03T05:11:00.028Z,94713.25
2022-09-03T05:13:28.568Z,94710.28
2022-09-03T05:16:00.637Z,94699.34
2022-09-03T05:18:28.690Z,94704.56
2022-09-03T05:21:01.537Z,94704.31
2022-09-03T05:23:32.287Z,94715.00
2022-09-03T05:26:06.533Z,94715.59
2022-09-03T05:28:37.772Z,94710.44
2022-09-03T05:31:06.925Z,94716.72
2022-09-03T05:33:35.241Z,94706.88
2022-09-03T05:36:05.698Z,94712.34
2022-09-03T05:38:33.338Z,94710.97
2022-09-03T05:41:01.662Z,94708.78
2022-09-03T05:43:30.152Z,94709.63
2022-09-03T05:46:01.321Z,94712.38
2022-09-03T05:48:29.382Z,94702.78
2022-09-03T05:51:01.824Z,94723.84
2022-09-03T05:53:31.631Z,94727.13
2022-09-03T05:56:00.192Z,94738.06
2022-09-03T05:58:31.718Z,94724.97
2022-09-03T06:00:59.485Z,94726.59
2022-09-03T06:03:27.533Z,94723.31
2022-09-03T06:05:55.815Z,94720.31
2022-09-03T06:08:23.493Z,94722.78
2022-09-03T06:10:52.471Z,94729.91
2022-09-03T06:13:20.080Z,94735.38
2022-09-03T06:15:47.703Z,94732.66
2022-09-03T06:18:15.313Z,94743.03
2022-09-03T06:20:42.963Z,94749.88
2022-09-03T06:23:10.572Z,94736.47
2022-09-03T06:25:38.229Z,94744.41
2022-09-03T06:28:08.937Z,94736.47
2022-09-03T06:30:37.206Z,94743.31
2022-09-03T06:33:04.908Z,94742.50
2022-09-03T06:35:33.520Z,94752.06
2022-09-03T06:38:12.385Z,94765.75
2022-09-03T06:40:40.062Z,94756.19
2022-09-03T06:43:10.862Z,94757.00
2022-09-03T06:45:38.558Z,94761.66
2022-09-03T06:48:06.205Z,94766.03
2022-09-03T06:50:34.776Z,94770.69
2022-09-03T06:53:02.498Z,94775.91
2022-09-03T06:55:30.672Z,94763.59
2022-09-03T06:57:58.299Z,94767.13
2022-09-03T07:00:28.625Z,94766.03
2022-09-03T07:03:00.088Z,94773.41
2022-09-03T07:05:28.708Z,94765.47
2022-09-03T07:07:56.315Z,94758.38
2022-09-03T07:10:23.985Z,94762.75
2022-09-03T07:12:51.593Z,94756.16
2022-09-03T07:15:20.414Z,94768.19
2022-09-03T07:17:51.147Z,94761.06
2022-09-03T07:20:18.820Z,94760.53
2022-09-03T07:22:46.452Z,94770.38
2022-09-03T07:25:14.209Z,94758.88
2022-09-03T07:27:41.898Z,94759.41
2022-09-03T07:30:11.166Z,94766.81
2022-09-03T07:32:40.952Z,94767.09
2022-09-03T07:35:10.248Z,94770.34
2022-09-03T07:37:38.453Z,94762.69
2022-09-03T07:40:06.851Z,94764.59
2022-09-03T07:42:36.118Z,94764.03
2022-09-03T07:45:05.502Z,94768.66
2022-09-03T07:47:34.540Z,94766.38
2022-09-03T07:50:02.156Z,94769.09
2022-09-03T07:52:31.195Z,94765.69
2022-09-03T07:54:59.391Z,94756.44
2022-09-03T07:57:26.987Z,94752.16
2022-09-03T07:59:54.615Z,94756.44
2022-09-03T08:02:22.303Z,94762.28
2022-09-03T08:04:49.944Z,94769.25
2022-09-03T08:07:17.568Z,94775.13
2022-09-03T08:09:46.552Z,94767.31
2022-09-03T08:12:14.156Z,94762.38
2022-09-03T08:14:41.794Z,94758.97
2022-09-03T08:17:09.439Z,94770.41
2022-09-03T08:19:37.104Z,94772.81
2022-09-03T08:22:04.766Z,94771.44
2022-09-03T08:24:34.383Z,94772.16
2022-09-03T08:27:03.626Z,94771.25
2022-09-03T08:29:31.497Z,94765.66
2022-09-03T08:31:59.799Z,94768.63
2022-09-03T08:34:27.570Z,94766.63
2022-09-03T08:36:55.215Z,94766.34
2022-09-03T08:39:24.399Z,94772.81
2022-09-03T08:42:08.348Z,94765.03
2022-09-03T08:44:45.340Z,94763.53
2022-09-03T08:47:15.659Z,94762.78
2022-09-03T08:49:46.861Z,94756.88
2022-09-03T08:52:23.293Z,94764.75
2022-09-03T08:54:52.964Z,94765.00
2022-09-03T08:57:22.141Z,94760.59
2022-09-03T08:59:54.355Z,94764.38
2022-09-03T09:02:25.456Z,94760.06
2022-09-03T09:05:00.557Z,94756.19
2022-09-03T09:07:32.949Z,94756.84
2022-09-03T09:10:05.226Z,94756.50
2022-09-03T09:12:46.354Z,94754.69
2022-09-03T09:15:17.249Z,94771.16
2022-09-03T09:17:52.380Z,94766.84
2022-09-03T09:20:25.194Z,94752.63
2022-09-03T09:22:56.401Z,94753.97
2022-09-03T09:25:26.301Z,94747.38
2022-09-03T09:27:58.429Z,94750.53
2022-09-03T09:30:25.940Z,94749.38
2022-09-03T09:32:54.001Z,94752.16
2022-09-03T09:35:21.839Z,94751.66
2022-09-03T09:37:51.401Z,94741.25
2022-09-03T09:40:33.801Z,94745.94
2022-09-03T09:43:12.033Z,94745.47
2022-09-03T09:45:41.661Z,94749.53
2022-09-03T09:48:15.128Z,94746.38
2022-09-03T09:50:42.765Z,94744.97
2022-09-03T09:53:15.980Z,94746.59
2022-09-03T09:55:54.487Z,94747.75
2022-09-03T09:58:25.404Z,94746.66
2022-09-03T10:00:59.826Z,94754.16
2022-09-03T10:03:29.880Z,94747.81
2022-09-03T10:06:25.760Z,94742.75
2022-09-03T10:08:54.454Z,94745.34
2022-09-03T10:11:25.400Z,94748.16
2022-09-03T10:13:55.695Z,94746.84
2022-09-03T10:16:28.039Z,94739.97
2022-09-03T10:19:03.326Z,94742.44
2022-09-03T10:21:34.296Z,94737.34
2022-09-03T10:24:11.447Z,94746.81
2022-09-03T10:26:39.054Z,94741.56
2022-09-03T10:29:08.743Z,94740.56
2022-09-03T10:31:43.790Z,94745.13
2022-09-03T10:34:15.256Z,94738.94
2022-09-03T10:36:49.208Z,94729.50
2022-09-03T10:39:24.098Z,94721.19
2022-09-03T10:42:03.534Z,94726.56
2022-09-03T10:44:43.687Z,94727.81
2022-09-03T10:47:37.738Z,94731.34
2022-09-03T10:50:16.681Z,94735.59
2022-09-03T10:52:57.720Z,94736.97
2022-09-03T10:55:43.162Z,94731.53
2022-09-03T10:58:25.721Z,94735.28
2022-09-03T11:00:59.816Z,94726.94
2022-09-03T11:03:45.727Z,94733.22
2022-09-03T11:06:18.665Z,94730.53
2022-09-03T11:08:49.713Z,94733.66
2022-09-03T11:11:20.574Z,94721.88
2022-09-03T11:13:51.105Z,94726.47
2022-09-03T11:16:22.422Z,94724.25
2022-09-03T11:18:51.529Z,94718.38
2022-09-03T11:21:22.260Z,94715.25
2022-09-03T11:23:55.217Z,94719.06
2022-09-03T11:26:26.372Z,94714.69
2022-09-03T11:29:00.667Z,94708.03
2022-09-03T11:31:40.797Z,94695.56
2022-09-03T11:34:10.310Z,94697.44
2022-09-03T11:36:41.085Z,94690.97
2022-09-03T11:39:16.845Z,94694.59
2022-09-03T11:41:44.773Z,94686.09
2022-09-03T11:44:18.558Z,94691.81
2022-09-03T11:46:56.105Z,94691.13
2022-09-03T11:49:30.163Z,94683.81
2022-09-03T11:52:01.292Z,94684.75
2022-09-03T11:54:32.562Z,94686.38
2022-09-03T11:57:13.668Z,94682.78
2022-09-03T11:59:42.879Z,94689.00
2022-09-03T12:02:23.941Z,94687.72
2022-09-03T12:05:14.174Z,94686.16
2022-09-03T12:07:51.325Z,94683.16
2022-09-03T12:10:29.942Z,94682.53
2022-09-03T12:13:04.659Z,94677.28
2022-09-03T12:16:05.327Z,94675.25
2022-09-03T12:18:35.957Z,94681.69
2022-09-03T12:21:05.775Z,94678.31
2022-09-03T12:23:35.214Z,94678.59
2022-09-03T12:26:06.041Z,94679.03
2022-09-03T12:28:37.374Z,94678.09
2022-09-03T12:31:21.577Z,94675.06
2022-09-03T12:33:54.287Z,94671.97
2022-09-03T12:36:23.999Z,94676.72
2022-09-03T12:41:40.210Z,94675.84
2022-09-03T12:44:07.969Z,94666.56
2022-09-03T12:46:35.790Z,94657.69
2022-09-03T12:52:05.173Z,94645.97
2022-09-03T12:54:34.594Z,94650.28
2022-09-03T12:57:02.490Z,94636.72
2022-09-03T12:59:34.189Z,94630.41
2022-09-03T13:02:04.899Z,94627.81
2022-09-03T13:04:36.270Z,94626.41
2022-09-03T13:07:06.231Z,94631.16
2022-09-03T13:09:36.951Z,94649.50
2022-09-03T13:12:05.872Z,94654.28
2022-09-03T13:14:43.878Z,94648.69
2022-09-03T13:17:22.803Z,94662.06
2022-09-03T13:20:14.093Z,94674.50
2022-09-03T13:22:51.278Z,94676.63
2022-09-03T13:25:25.099Z,94674.47
2022-09-03T13:28:02.516Z,94655.63
2022-09-03T13:30:33.817Z,94663.88
2022-09-03T13:33:04.403Z,94664.69
2022-09-03T13:35:39.184Z,94672.56
2022-09-03T13:38:21.453Z,94667.16
2022-09-03T13:40:51.647Z,94681.47
2022-09-03T13:43:28.410Z,94701.22
2022-09-03T13:45:59.041Z,94737.84
2022-09-03T13:48:49.011Z,94758.63
2022-09-03T13:51:21.107Z,94799.88
2022-09-03T13:53:55.885Z,94832.69
2022-09-03T13:56:37.671Z,94864.06
2022-09-03T13:59:09.679Z,94871.47
2022-09-03T14:01:47.334Z,94858.09
2022-09-03T14:04:19.418Z,94850.66
2022-09-03T14:06:56.998Z,94839.66
2022-09-03T14:09:31.082Z,94839.06
2022-09-03T14:12:02.190Z,94850.13
2022-09-03T14:14:40.304Z,94825.22
2022-09-03T14:17:13.732Z,94820.25
2022-09-03T14:19:47.624Z,94802.50
2022-09-03T14:22:20.461Z,94793.94
2022-09-03T14:24:52.468Z,94792.41
2022-09-03T14:27:25.399Z,94798.13
2022-09-03T14:29:56.266Z,94800.50
2022-09-03T14:32:29.847Z,94798.00
2022-09-03T14:35:11.491Z,94805.38
2022-09-03T14:38:06.589Z,94800.66
2022-09-03T14:40:41.973Z,94797.38
2022-09-03T14:43:20.094Z,94805.25
2022-09-03T14:46:05.800Z,94808.50
2022-09-03T14:48:56.071Z,94806.56
2022-09-03T14:51:39.782Z,94786.72
2022-09-03T14:54:35.030Z,94789.19
2022-09-03T14:57:18.165Z,94790.38
2022-09-03T15:00:04.795Z,94792.66
2022-09-03T15:03:09.610Z,94796.38
2022-09-03T15:05:49.336Z,94799.72
2022-09-03T15:08:25.869Z,94795.34
2022-09-03T15:10:57.153Z,94798.59
2022-09-03T15:13:27.068Z,94797.38
2022-09-03T15:16:06.417Z,94784.78
2022-09-03T15:18:45.963Z,94788.47
2022-09-03T15:21:20.771Z,94787.06
2022-09-03T15:23:57.427Z,94789.47
2022-09-03T15:27:01.180Z,94795.13
2022-09-03T15:29:39.352Z,94800.28
2022-09-03T15:32:14.394Z,94797.81
2022-09-03T15:35:11.039Z,94794.84
2022-09-03T15:37:45.761Z,94793.22
2022-09-03T15:40:26.928Z,94794.03
2022-09-03T15:42:59.866Z,94789.41
2022-09-03T15:45:36.118Z,94788.31
2022-09-03T15:48:11.766Z,94798.38
2022-09-03T15:50:52.780Z,94805.22
2022-09-03T15:53:30.749Z,94812.16
2022-09-03T15:56:13.452Z,94806.19
2022-09-03T15:58:47.140Z,94798.13
2022-09-03T16:01:24.787Z,94791.72
2022-09-03T16:03:59.692Z,94801.28
2022-09-03T16:06:38.222Z,94794.66
2022-09-03T16:09:18.662Z,94796.53
2022-09-03T16:11:53.765Z,94789.94
2022-09-03T16:14:30.861Z,94796.06
2022-09-03T16:17:04.473Z,94797.28
2022-09-03T16:19:37.758Z,94790.66
2022-09-03T16:22:08.009Z,94791.97
2022-09-03T16:24:42.844Z,94781.59
2022-09-03T16:27:17.230Z,94780.50
2022-09-03T16:29:56.797Z,94784.34
2022-09-03T16:32:32.220Z,94774.47
2022-09-03T16:35:10.154Z,94771.31
2022-09-03T16:37:48.796Z,94770.63
2022-09-03T16:40:26.446Z,94769.66
2022-09-03T16:43:05.112Z,94777.22
2022-09-03T16:45:48.000Z,94782.28
2022-09-03T16:48:25.490Z,94785.69
2022-09-03T16:51:08.279Z,94786.09
2022-09-03T16:53:45.816Z,94791.38
2022-09-03T16:56:31.924Z,94784.44
2022-09-03T16:59:04.073Z,94793.44
2022-09-03T17:01:39.813Z,94788.28
2022-09-03T17:04:30.916Z,94799.38
2022-09-03T17:07:07.807Z,94792.66
2022-09-03T17:09:47.187Z,94793.28
2022-09-03T17:12:22.231Z,94795.03
2022-09-03T17:15:25.635Z,94795.13
2022-09-03T17:18:05.060Z,94780.34
2022-09-03T17:20:49.233Z,94780.84
2022-09-03T17:23:32.731Z,94789.88
2022-09-03T17:26:06.340Z,94779.66
2022-09-03T17:28:47.528Z,94782.13
2022-09-03T17:31:19.150Z,94778.69
2022-09-03T17:33:58.715Z,94783.94
2022-09-03T17:36:27.554Z,94777.09
2022-09-03T17:39:39.801Z,94775.53
2022-09-03T17:42:14.808Z,94769.59
2022-09-03T17:44:55.156Z,94776.69
2022-09-03T17:47:50.168Z,94780.25
2022-09-03T17:50:25.035Z,94780.00
2022-09-03T17:52:55.710Z,94788.81
2022-09-03T17:55:29.992Z,94781.41
2022-09-03T17:58:02.614Z,94779.03
2022-09-03T18:00:35.746Z,94778.25
2022-09-03T18:03:09.133Z,94783.22
2022-09-03T18:05:46.874Z,94792.56
2022-09-03T18:08:20.206Z,94796.66
2022-09-03T18:10:53.216Z,94797.22
2022-09-03T18:13:28.348Z,94800.78
2022-09-03T18:16:01.169Z,94798.56
2022-09-03T18:18:30.333Z,94803.81
2022-09-03T18:21:29.320Z,94810.44
2022-09-03T18:24:19.634Z,94809.84
2022-09-03T18:27:08.211Z,94814.75
2022-09-03T18:30:02.510Z,94810.69
2022-09-03T18:32:48.163Z,94809.31
2022-09-03T18:35:33.925Z,94818.41
2022-09-03T18:38:22.374Z,94820.63
2022-09-03T18:41:12.154Z,94825.53
2022-09-03T18:44:01.873Z,94840.38
2022-09-03T18:48:01.016Z,94842.06
2022-09-03T18:50:02.653Z,94840.97
2022-09-03T18:52:51.541Z,94846.13
2022-09-03T18:55:41.588Z,94846.44
2022-09-03T18:58:34.687Z,94842.09
2022-09-03T19:01:25.522Z,94849.50
2022-09-03T19:04:18.329Z,94844.31
2022-09-03T19:07:09.320Z,94843.88
2022-09-03T19:10:03.224Z,94852.38
2022-09-03T19:12:59.378Z,94858.44
2022-09-03T19:15:48.093Z,94857.63
2022-09-03T19:18:45.699Z,94857.91
2022-09-03T19:21:39.081Z,94852.72
2022-09-03T19:24:24.397Z,94848.59
2022-09-03T19:27:50.021Z,94849.19
2022-09-03T19:30:27.345Z,94853.00
2022-09-03T19:33:22.786Z,94859.31
2022-09-03T19:36:13.507Z,94859.59
2022-09-03T19:39:08.219Z,94864.81
2022-09-03T19:41:57.875Z,94860.44
2022-09-03T19:44:53.343Z,94868.97
2022-09-03T19:47:55.894Z,94876.13
2022-09-03T19:50:44.077Z,94880.50
2022-09-03T19:53:36.829Z,94873.41
2022-09-03T19:56:25.566Z,94875.03
2022-09-03T19:59:14.426Z,94878.88
2022-09-03T20:01:59.980Z,94875.03
2022-09-03T20:04:50.237Z,94875.34
2022-09-03T20:07:36.540Z,94874.50
2022-09-03T20:10:24.577Z,94880.50
2022-09-03T20:13:02.630Z,94884.63
2022-09-03T20:15:40.002Z,94887.13
2022-09-03T20:18:13.265Z,94883.00
2022-09-03T20:20:46.368Z,94888.22
2022-09-03T20:23:20.322Z,94882.19
2022-09-03T20:25:59.255Z,94894.25
2022-09-03T20:28:37.926Z,94895.34
2022-09-03T20:31:10.245Z,94897.53
2022-09-03T20:33:57.873Z,94891.53
2022-09-03T20:36:35.087Z,94906.53
2022-09-03T20:39:14.579Z,94907.38
2022-09-03T20:41:48.622Z,94906.81
2022-09-03T20:44:28.273Z,94910.66
2022-09-03T20:47:12.247Z,94909.53
2022-09-03T20:49:46.894Z,94911.72
2022-09-03T20:52:21.036Z,94911.13
2022-09-03T20:54:58.061Z,94912.78
2022-09-03T20:57:34.618Z,94912.25
2022-09-03T21:00:09.470Z,94911.16
2022-09-03T21:03:12.740Z,94920.47
2022-09-03T21:05:46.355Z,94924.84
2022-09-03T21:08:36.903Z,94925.41
2022-09-03T21:11:07.295Z,94927.03
2022-09-03T21:13:41.411Z,94928.94
2022-09-03T21:16:21.799Z,94934.16
2022-09-03T21:18:58.272Z,94935.50
2022-09-03T21:21:36.388Z,94933.81
2022-09-03T21:24:08.186Z,94939.03
2022-09-03T21:26:41.865Z,94941.22
2022-09-03T21:29:16.404Z,94943.41
2022-09-03T21:31:50.808Z,94937.41
2022-09-03T21:34:21.146Z,94939.59
2022-09-03T21:36:50.404Z,94937.41
2022-09-03T21:39:25.724Z,94944.78
2022-09-03T21:41:59.233Z,94944.22
2022-09-03T21:44:42.239Z,94949.97
2022-09-03T21:47:11.803Z,94949.69
2022-09-03T21:49:42.496Z,94951.38
2022-09-03T21:52:14.252Z,94951.09
2022-09-03T21:54:43.408Z,94951.66
2022-09-03T21:57:14.947Z,94940.44
2022-09-03T21:59:59.739Z,94947.25
2022-09-03T22:02:29.299Z,94946.47
2022-09-03T22:04:58.316Z,94954.41
2022-09-03T22:07:34.392Z,94945.91
2022-09-03T22:10:08.808Z,94952.72
2022-09-03T22:12:46.015Z,94946.69
2022-09-03T22:15:15.398Z,94948.34
2022-09-03T22:17:47.239Z,94947.75
2022-09-03T22:20:16.051Z,94953.53
2022-09-03T22:22:46.333Z,94954.34
2022-09-03T22:25:18.806Z,94955.72
2022-09-03T22:27:50.549Z,94947.22
2022-09-03T22:30:22.294Z,94945.00
2022-09-03T22:32:57.705Z,94954.88
2022-09-03T22:35:43.073Z,94948.31
2022-09-03T22:38:23.374Z,94943.66
2022-09-03T22:40:57.345Z,94942.00
2022-09-03T22:43:36.961Z,94940.94
2022-09-03T22:46:11.380Z,94943.66
2022-09-03T22:48:53.933Z,94941.19
2022-09-03T22:51:21.989Z,94944.19
2022-09-03T22:54:02.883Z,94940.38
2022-09-03T22:56:34.860Z,94944.19
2022-09-03T22:59:05.845Z,94949.13
2022-09-03T23:01:36.414Z,94948.31
2022-09-03T23:04:09.475Z,94949.94
2022-09-03T23:06:41.163Z,94942.28
2022-09-03T23:09:10.740Z,94943.69
2022-09-03T23:11:43.833Z,94945.06
2022-09-03T23:14:14.167Z,94943.16
2022-09-03T23:16:43.927Z,94942.34
2022-09-03T23:21:50.407Z,94949.41
2022-09-03T23:24:20.931Z,94942.84
2022-09-03T23:26:53.660Z,94943.09
2022-09-03T23:29:30.236Z,94947.72
2022-09-03T23:31:58.373Z,94954.06
2022-09-03T23:34:26.740Z,94950.47
2022-09-03T23:40:12.904Z,94962.19
2022-09-03T23:42:51.927Z,94961.38
2022-09-03T23:45:26.298Z,94961.94
2022-09-03T23:47:55.592Z,94970.13
2022-09-03T23:50:30.652Z,94960.84
2022-09-03T23:53:09.662Z,94958.94
2022-09-03T23:55:45.288Z,94957.81
2022-09-03T23:58:22.666Z,94958.34
